createdAt,value
2022-11-30T00:01:17.720Z,43.05
2022-11-30T00:03:44.832Z,44.03
2022-11-30T00:06:14.099Z,43.38
2022-11-30T00:08:40.889Z,39.78
2022-11-30T00:11:18.251Z,38.95
2022-11-30T00:13:45.123Z,38.83
2022-11-30T00:16:11.888Z,47.25
2022-11-30T00:18:39.419Z,44.90
2022-11-30T00:21:11.420Z,42.85
2022-11-30T00:23:41.203Z,44.50
2022-11-30T00:26:10.079Z,42.92
2022-11-30T00:28:38.111Z,43.83
2022-11-30T00:31:11.062Z,41.13
2022-11-30T00:33:38.548Z,41.50
2022-11-30T00:36:17.813Z,43.22
2022-11-30T00:38:45.630Z,45.88
2022-11-30T00:41:13.047Z,45.88
2022-11-30T00:43:39.874Z,44.90
2022-11-30T00:46:09.247Z,44.55
2022-11-30T00:48:36.819Z,46.50
2022-11-30T00:51:04.039Z,44.53
2022-11-30T00:53:30.903Z,45.28
2022-11-30T00:55:57.578Z,46.50
2022-11-30T00:58:24.402Z,49.72
2022-11-30T01:00:51.352Z,42.55
2022-11-30T01:03:18.101Z,39.65
2022-11-30T01:05:44.780Z,43.58
2022-11-30T01:08:13.066Z,44.25
2022-11-30T01:10:42.171Z,43.40
2022-11-30T01:13:11.135Z,47.28
2022-11-30T01:15:40.415Z,46.17
2022-11-30T01:18:07.549Z,47.30
2022-11-30T01:20:34.756Z,48.60
2022-11-30T01:23:01.650Z,52.67
2022-11-30T01:25:28.435Z,45.20
2022-11-30T01:27:55.150Z,47.25
2022-11-30T01:30:21.866Z,43.85
2022-11-30T01:32:48.575Z,43.15
2022-11-30T01:35:15.372Z,45.70
2022-11-30T01:37:42.156Z,47.08
2022-11-30T01:40:11.727Z,43.25
2022-11-30T01:42:38.507Z,43.17
2022-11-30T01:45:07.285Z,46.10
2022-11-30T01:47:41.043Z,41.58
2022-11-30T01:50:16.180Z,43.17
2022-11-30T01:52:51.835Z,44.53
2022-11-30T01:55:32.340Z,38.33
2022-11-30T01:58:27.098Z,43.00
2022-11-30T02:00:53.982Z,47.88
2022-11-30T02:03:41.379Z,44.67
2022-11-30T02:06:08.385Z,44.90
2022-11-30T02:08:35.284Z,44.55
2022-11-30T02:11:05.647Z,46.78
2022-11-30T02:13:44.930Z,47.00
2022-11-30T02:16:26.987Z,43.88
2022-11-30T02:19:31.231Z,47.78
2022-11-30T02:22:10.726Z,46.40
2022-11-30T02:25:02.540Z,45.40
2022-11-30T02:28:06.744Z,51.58
2022-11-30T02:30:36.151Z,49.05
2022-11-30T02:33:11.895Z,47.93
2022-11-30T02:35:43.394Z,48.72
2022-11-30T02:38:11.750Z,47.53
2022-11-30T02:40:38.536Z,48.97
2022-11-30T02:43:06.626Z,47.20
2022-11-30T02:45:41.526Z,46.58
2022-11-30T02:48:10.398Z,49.28
2022-11-30T02:50:48.610Z,50.97
2022-11-30T02:53:15.394Z,46.50
2022-11-30T02:55:42.131Z,52.25
2022-11-30T02:58:08.814Z,45.47
2022-11-30T03:00:35.747Z,46.03
2022-11-30T03:03:02.613Z,60.85
2022-11-30T03:05:29.448Z,45.60
2022-11-30T03:07:56.195Z,43.35
2022-11-30T03:10:23.012Z,43.75
2022-11-30T03:12:49.854Z,44.75
2022-11-30T03:15:16.690Z,40.42
2022-11-30T03:17:43.463Z,40.38
2022-11-30T03:20:10.404Z,32.10
2022-11-30T03:22:37.198Z,33.80
2022-11-30T03:25:04.147Z,37.17
2022-11-30T03:27:30.818Z,32.38
2022-11-30T03:29:57.562Z,38.05
2022-11-30T03:32:24.269Z,38.50
2022-11-30T03:34:51.104Z,40.65
2022-11-30T03:37:18.004Z,36.92
2022-11-30T03:39:44.758Z,36.88
2022-11-30T03:42:11.471Z,37.08
2022-11-30T03:44:38.194Z,36.47
2022-11-30T03:47:05.023Z,35.13
2022-11-30T03:49:31.745Z,37.95
2022-11-30T03:51:58.421Z,43.00
2022-11-30T03:54:25.170Z,39.92
2022-11-30T03:56:51.891Z,42.40
2022-11-30T03:59:18.598Z,37.22
2022-11-30T04:01:45.342Z,40.00
2022-11-30T04:04:12.486Z,38.53
2022-11-30T04:06:40.607Z,42.25
2022-11-30T04:09:07.368Z,44.08
2022-11-30T04:11:34.131Z,43.67
2022-11-30T04:14:00.813Z,45.08
2022-11-30T04:16:27.737Z,44.78
2022-11-30T04:18:54.492Z,45.63
2022-11-30T04:21:21.332Z,40.72
2022-11-30T04:23:48.036Z,45.05
2022-11-30T04:26:16.605Z,50.17
2022-11-30T04:28:44.013Z,48.25
2022-11-30T04:31:11.587Z,52.38
2022-11-30T04:33:38.736Z,45.92
2022-11-30T04:36:07.655Z,47.45
2022-11-30T04:38:36.138Z,45.05
2022-11-30T04:41:08.218Z,47.42
2022-11-30T04:43:35.074Z,45.47
2022-11-30T04:46:01.762Z,46.08
2022-11-30T04:48:28.481Z,47.47
2022-11-30T04:51:06.890Z,46.10
2022-11-30T04:53:34.912Z,49.95
2022-11-30T04:56:06.998Z,51.80
2022-11-30T04:58:33.842Z,47.63
2022-11-30T05:01:00.620Z,48.53
2022-11-30T05:03:27.412Z,46.50
2022-11-30T05:05:54.158Z,47.33
2022-11-30T05:08:20.948Z,45.28
2022-11-30T05:10:53.422Z,48.88
2022-11-30T05:13:21.213Z,50.28
2022-11-30T05:15:48.216Z,49.90
2022-11-30T05:18:15.903Z,47.63
2022-11-30T05:20:48.131Z,43.80
2022-11-30T05:23:16.135Z,41.00
2022-11-30T05:25:44.087Z,43.33
2022-11-30T05:28:11.293Z,45.00
2022-11-30T05:30:42.108Z,42.25
2022-11-30T05:33:09.097Z,45.47
2022-11-30T05:35:36.250Z,44.47
2022-11-30T05:38:03.324Z,40.92
2022-11-30T05:40:32.507Z,46.17
2022-11-30T05:43:01.030Z,40.17
2022-11-30T05:45:28.306Z,41.28
2022-11-30T05:47:55.042Z,42.50
2022-11-30T05:50:21.921Z,42.33
2022-11-30T05:52:48.662Z,43.10
2022-11-30T05:55:15.357Z,33.85
2022-11-30T05:57:42.123Z,37.10
2022-11-30T06:00:09.964Z,38.35
2022-11-30T06:02:37.034Z,38.20
2022-11-30T06:05:04.069Z,35.90
2022-11-30T06:07:30.868Z,34.58
2022-11-30T06:09:57.749Z,38.05
2022-11-30T06:12:24.616Z,33.15
2022-11-30T06:14:51.378Z,37.03
2022-11-30T06:17:18.125Z,36.20
2022-11-30T06:19:44.877Z,36.25
2022-11-30T06:22:11.562Z,36.47
2022-11-30T06:24:38.262Z,34.95
2022-11-30T06:27:04.978Z,34.80
2022-11-30T06:29:31.661Z,37.40
2022-11-30T06:31:58.379Z,37.72
2022-11-30T06:34:25.134Z,35.33
2022-11-30T06:36:51.835Z,35.40
2022-11-30T06:39:31.488Z,36.72
2022-11-30T06:42:05.489Z,35.10
2022-11-30T06:44:32.223Z,32.50
2022-11-30T06:46:58.930Z,37.55
2022-11-30T06:49:25.706Z,32.05
2022-11-30T06:51:52.407Z,37.50
2022-11-30T06:54:19.146Z,32.75
2022-11-30T06:56:45.836Z,34.80
2022-11-30T06:59:12.570Z,34.40
2022-11-30T07:01:39.317Z,36.72
2022-11-30T07:04:06.065Z,32.22
2022-11-30T07:06:32.782Z,34.00
2022-11-30T07:08:59.489Z,34.60
2022-11-30T07:11:26.263Z,31.95
2022-11-30T07:13:52.992Z,31.30
2022-11-30T07:16:19.708Z,29.23
2022-11-30T07:18:46.449Z,31.17
2022-11-30T07:21:13.263Z,33.03
2022-11-30T07:23:58.387Z,35.15
2022-11-30T07:26:25.877Z,31.70
2022-11-30T07:28:58.701Z,38.53
2022-11-30T07:31:28.094Z,33.05
2022-11-30T07:33:56.100Z,34.70
2022-11-30T07:36:25.572Z,34.90
2022-11-30T07:38:52.666Z,34.47
2022-11-30T07:41:19.512Z,38.35
2022-11-30T07:43:46.261Z,35.38
2022-11-30T07:46:14.700Z,35.95
2022-11-30T07:48:42.948Z,35.13
2022-11-30T07:51:15.547Z,35.60
2022-11-30T07:53:42.750Z,33.17
2022-11-30T07:56:12.966Z,35.85
2022-11-30T08:01:09.519Z,33.53
2022-11-30T08:03:37.542Z,37.77
2022-11-30T08:06:09.821Z,34.97
2022-11-30T08:08:39.134Z,36.85
2022-11-30T08:11:07.695Z,36.75
2022-11-30T08:13:34.810Z,41.08
2022-11-30T08:16:03.704Z,38.30
2022-11-30T08:18:30.540Z,37.03
2022-11-30T08:21:02.381Z,38.20
2022-11-30T08:23:35.847Z,38.67
2022-11-30T08:26:23.085Z,39.47
2022-11-30T08:28:51.012Z,36.03
2022-11-30T08:31:19.288Z,36.83
2022-11-30T08:33:46.138Z,38.20
2022-11-30T08:36:18.524Z,36.78
2022-11-30T08:38:47.025Z,36.30
2022-11-30T08:41:17.015Z,36.10
2022-11-30T08:43:43.730Z,37.17
2022-11-30T08:52:15.897Z,34.53
2022-11-30T08:54:35.050Z,33.17
2022-11-30T08:57:01.898Z,33.05
2022-11-30T08:59:31.417Z,35.83
2022-11-30T09:01:58.244Z,37.17
2022-11-30T09:04:25.032Z,37.65
2022-11-30T09:06:51.756Z,32.90
2022-11-30T09:09:18.658Z,32.90
2022-11-30T09:11:45.344Z,37.15
2022-11-30T09:14:12.102Z,34.78
2022-11-30T09:16:38.855Z,35.03
2022-11-30T09:19:05.627Z,35.92
2022-11-30T09:21:32.414Z,34.00
2022-11-30T09:23:59.109Z,34.70
2022-11-30T09:26:26.025Z,34.83
2022-11-30T09:28:54.106Z,33.88
2022-11-30T09:31:26.205Z,31.95
2022-11-30T09:33:55.011Z,29.65
2022-11-30T09:36:22.858Z,31.40
2022-11-30T09:38:49.968Z,31.20
2022-11-30T09:41:28.882Z,30.30
2022-11-30T09:44:20.118Z,35.47
2022-11-30T09:47:11.216Z,34.10
2022-11-30T09:49:45.932Z,37.03
2022-11-30T09:52:25.071Z,36.22
2022-11-30T09:54:51.842Z,34.75
2022-11-30T09:57:47.949Z,36.03
2022-11-30T10:00:21.814Z,35.60
2022-11-30T10:02:53.791Z,34.25
2022-11-30T10:05:22.180Z,31.08
2022-11-30T10:08:06.229Z,32.92
2022-11-30T10:10:39.731Z,32.45
2022-11-30T10:13:06.505Z,34.80
2022-11-30T10:15:46.603Z,34.40
2022-11-30T10:18:45.444Z,32.00
2022-11-30T10:21:41.288Z,34.85
2022-11-30T10:24:38.804Z,32.13
2022-11-30T10:27:33.136Z,30.25
2022-11-30T10:30:01.675Z,28.30
2022-11-30T10:32:36.772Z,30.08
2022-11-30T10:35:29.747Z,29.98
2022-11-30T10:37:58.007Z,32.35
2022-11-30T10:40:45.915Z,27.40
2022-11-30T10:43:27.617Z,26.70
2022-11-30T10:45:54.729Z,23.25
2022-11-30T10:48:40.612Z,24.40
2022-11-30T10:51:08.155Z,26.15
2022-11-30T10:53:34.915Z,26.48
2022-11-30T10:56:06.742Z,29.92
2022-11-30T10:58:38.959Z,32.72
2022-11-30T11:01:11.720Z,27.45
2022-11-30T11:03:38.621Z,28.80
2022-11-30T11:06:23.828Z,29.13
2022-11-30T11:08:51.191Z,29.13
2022-11-30T11:11:38.928Z,26.63
2022-11-30T11:14:15.849Z,23.80
2022-11-30T11:16:56.189Z,27.08
2022-11-30T11:22:21.683Z,21.83
2022-11-30T11:24:50.569Z,23.85
2022-11-30T11:27:26.346Z,22.95
2022-11-30T11:29:59.143Z,22.02
2022-11-30T11:32:25.919Z,21.65
2022-11-30T11:34:53.517Z,21.85
2022-11-30T11:37:22.546Z,22.13
2022-11-30T11:40:12.955Z,22.98
2022-11-30T11:45:26.057Z,21.98
2022-11-30T11:48:28.770Z,21.42
2022-11-30T11:51:07.153Z,19.83
2022-11-30T11:53:48.711Z,21.20
2022-11-30T11:56:31.640Z,19.90
2022-11-30T11:59:00.528Z,24.95
2022-11-30T12:01:50.397Z,30.42
2022-11-30T12:04:41.808Z,25.67
2022-11-30T12:07:38.059Z,27.15
2022-11-30T12:10:50.580Z,27.33
2022-11-30T12:13:19.449Z,29.25
2022-11-30T12:16:14.563Z,28.90
2022-11-30T12:19:05.606Z,29.52
2022-11-30T12:21:59.563Z,30.60
2022-11-30T12:24:38.423Z,28.13
2022-11-30T12:27:20.142Z,33.38
2022-11-30T12:29:47.237Z,29.80
2022-11-30T12:32:46.100Z,28.50
2022-11-30T12:35:27.857Z,29.65
2022-11-30T12:38:10.103Z,32.97
2022-11-30T12:40:55.824Z,33.05
2022-11-30T12:43:38.134Z,30.85
2022-11-30T12:46:19.494Z,28.08
2022-11-30T12:49:13.371Z,31.27
2022-11-30T12:51:50.923Z,27.52
2022-11-30T12:54:34.598Z,27.35
2022-11-30T12:57:23.042Z,26.75
2022-11-30T13:00:16.054Z,25.85
2022-11-30T13:02:45.472Z,25.65
2022-11-30T13:05:21.312Z,25.37
2022-11-30T13:08:03.071Z,21.75
2022-11-30T13:10:29.746Z,23.55
2022-11-30T13:12:57.453Z,22.30
2022-11-30T13:15:27.690Z,22.80
2022-11-30T13:20:45.205Z,22.08
2022-11-30T13:23:18.982Z,23.77
2022-11-30T13:26:07.813Z,23.63
2022-11-30T13:28:41.043Z,25.13
2022-11-30T13:31:34.206Z,23.85
2022-11-30T13:34:01.116Z,24.42
2022-11-30T13:36:37.023Z,25.05
2022-11-30T13:39:16.418Z,25.38
2022-11-30T13:41:49.387Z,22.30
2022-11-30T13:44:45.440Z,26.98
2022-11-30T13:47:27.702Z,27.55
2022-11-30T13:50:00.726Z,21.67
2022-11-30T13:52:58.548Z,25.35
2022-11-30T13:55:43.404Z,23.27
2022-11-30T13:58:11.556Z,22.17
2022-11-30T14:00:38.245Z,20.52
2022-11-30T14:06:56.466Z,23.60
2022-11-30T14:09:41.337Z,25.08
2022-11-30T14:12:33.026Z,23.63
2022-11-30T14:15:01.085Z,24.27
2022-11-30T14:17:38.147Z,31.35
2022-11-30T14:20:16.426Z,27.77
2022-11-30T14:22:44.183Z,29.48
2022-11-30T14:25:19.857Z,27.13
2022-11-30T14:27:48.993Z,30.73
2022-11-30T14:30:21.510Z,26.27
2022-11-30T14:33:04.365Z,30.52
2022-11-30T14:35:32.010Z,26.40
2022-11-30T14:38:00.355Z,26.67
2022-11-30T14:40:33.437Z,28.50
2022-11-30T14:43:02.105Z,26.15
2022-11-30T14:45:32.047Z,27.48
2022-11-30T14:48:15.679Z,28.58
2022-11-30T14:50:54.860Z,27.45
2022-11-30T14:53:42.678Z,31.70
2022-11-30T14:56:33.309Z,32.05
2022-11-30T14:59:37.406Z,31.33
2022-11-30T15:02:11.954Z,35.08
2022-11-30T15:04:38.736Z,35.33
2022-11-30T15:07:13.219Z,35.58
2022-11-30T15:09:44.370Z,36.45
2022-11-30T15:12:15.231Z,37.83
2022-11-30T15:15:13.996Z,36.25
2022-11-30T15:17:54.454Z,36.50
2022-11-30T15:21:03.541Z,34.17
2022-11-30T15:23:30.392Z,37.85
2022-11-30T15:26:02.658Z,35.85
2022-11-30T15:28:37.707Z,32.00
2022-11-30T15:31:08.506Z,37.95
2022-11-30T15:33:42.660Z,34.70
2022-11-30T15:36:23.421Z,33.78
2022-11-30T15:38:56.601Z,34.65
2022-11-30T15:41:25.586Z,35.00
2022-11-30T15:43:54.634Z,37.50
2022-11-30T15:46:44.454Z,34.38
2022-11-30T15:49:12.622Z,34.97
2022-11-30T15:51:41.600Z,34.38
2022-11-30T15:54:08.426Z,35.63
2022-11-30T15:56:36.319Z,32.97
2022-11-30T15:59:04.764Z,32.55
2022-11-30T16:02:01.506Z,39.47
2022-11-30T16:04:48.274Z,35.55
2022-11-30T16:07:19.121Z,35.67
2022-11-30T16:09:46.271Z,32.97
2022-11-30T16:12:27.730Z,34.92
2022-11-30T16:14:54.410Z,36.50
2022-11-30T16:17:21.686Z,31.63
2022-11-30T16:19:48.776Z,37.08
2022-11-30T16:22:16.698Z,35.22
2022-11-30T16:24:43.386Z,31.63
2022-11-30T16:27:18.517Z,35.20
2022-11-30T16:29:50.646Z,34.85
2022-11-30T16:32:19.520Z,36.13
2022-11-30T16:34:47.942Z,34.80
2022-11-30T16:37:14.751Z,33.33
2022-11-30T16:39:41.493Z,34.63
2022-11-30T16:42:12.556Z,33.72
2022-11-30T16:44:39.302Z,30.50
2022-11-30T16:47:06.055Z,38.25
2022-11-30T16:49:32.759Z,34.75
2022-11-30T16:51:59.432Z,35.20
2022-11-30T16:54:26.165Z,32.28
2022-11-30T16:56:52.859Z,35.47
2022-11-30T16:59:19.571Z,34.40
2022-11-30T17:01:48.694Z,33.53
2022-11-30T17:04:22.848Z,34.10
2022-11-30T17:06:51.606Z,35.35
2022-11-30T17:09:21.154Z,35.47
2022-11-30T17:11:52.797Z,34.60
2022-11-30T17:14:21.006Z,34.42
2022-11-30T17:16:47.954Z,35.80
2022-11-30T17:19:14.698Z,37.40
2022-11-30T17:21:44.456Z,34.65
2022-11-30T17:24:12.054Z,33.72
2022-11-30T17:26:38.726Z,34.55
2022-11-30T17:29:05.752Z,35.15
2022-11-30T17:31:33.002Z,34.72
2022-11-30T17:33:59.703Z,36.72
2022-11-30T17:36:27.046Z,33.63
2022-11-30T17:38:53.826Z,34.90
2022-11-30T17:41:21.953Z,37.42
2022-11-30T17:43:49.319Z,32.85
2022-11-30T17:46:18.225Z,34.97
2022-11-30T17:48:45.362Z,35.13
2022-11-30T17:51:12.761Z,33.70
2022-11-30T17:53:40.756Z,34.92
2022-11-30T17:56:10.222Z,33.03
2022-11-30T17:58:43.884Z,33.90
2022-11-30T18:01:20.359Z,34.05
2022-11-30T18:03:48.117Z,35.55
2022-11-30T18:06:15.301Z,36.08
2022-11-30T18:08:42.514Z,32.97
2022-11-30T18:11:10.215Z,32.97
2022-11-30T18:13:37.311Z,33.13
2022-11-30T18:16:31.841Z,32.53
2022-11-30T18:18:59.689Z,34.95
2022-11-30T18:21:29.608Z,39.28
2022-11-30T18:23:57.675Z,34.90
2022-11-30T18:26:25.977Z,34.22
2022-11-30T18:28:54.885Z,32.15
2022-11-30T18:31:22.092Z,35.28
2022-11-30T18:33:48.999Z,33.05
2022-11-30T18:36:15.731Z,35.40
2022-11-30T18:38:43.922Z,32.33
2022-11-30T18:41:10.657Z,37.58
2022-11-30T18:43:38.167Z,37.55
2022-11-30T18:46:07.141Z,40.28
2022-11-30T18:48:34.441Z,36.00
2022-11-30T18:51:10.206Z,40.22
2022-11-30T18:53:36.992Z,36.35
2022-11-30T18:56:13.168Z,36.78
2022-11-30T18:58:40.893Z,36.97
2022-11-30T19:01:19.918Z,36.70
2022-11-30T19:03:52.421Z,36.22
2022-11-30T19:06:19.891Z,41.95
2022-11-30T19:08:47.771Z,41.30
2022-11-30T19:11:15.710Z,41.97
2022-11-30T19:13:42.505Z,39.53
2022-11-30T19:16:13.127Z,38.33
2022-11-30T19:18:40.161Z,37.53
2022-11-30T19:21:15.100Z,40.40
2022-11-30T19:23:42.274Z,42.15
2022-11-30T19:26:10.254Z,42.40
2022-11-30T19:28:38.783Z,41.42
2022-11-30T19:31:25.022Z,43.75
2022-11-30T19:33:54.018Z,44.38
2022-11-30T19:36:23.558Z,37.95
2022-11-30T19:38:53.815Z,41.50
2022-11-30T19:43:57.065Z,43.53
2022-11-30T19:46:28.124Z,41.35
2022-11-30T19:48:57.647Z,42.72
2022-11-30T19:51:24.398Z,40.93
2022-11-30T19:53:55.517Z,39.72
2022-11-30T19:56:23.429Z,41.78
2022-11-30T19:58:50.611Z,43.63
2022-11-30T20:01:23.968Z,44.97
2022-11-30T20:03:51.829Z,40.90
2022-11-30T20:06:19.435Z,43.53
2022-11-30T20:08:46.376Z,42.47
2022-11-30T20:11:14.507Z,42.13
2022-11-30T20:13:42.090Z,39.60
2022-11-30T20:16:13.593Z,41.85
2022-11-30T20:18:45.739Z,44.17
2022-11-30T20:21:19.580Z,40.30
2022-11-30T20:23:47.738Z,40.10
2022-11-30T20:26:19.642Z,44.00
2022-11-30T20:28:48.216Z,44.08
2022-11-30T20:31:16.846Z,44.67
2022-11-30T20:33:44.013Z,44.72
2022-11-30T20:36:12.207Z,44.75
2022-11-30T20:38:39.456Z,40.70
2022-11-30T20:41:10.604Z,38.70
2022-11-30T20:43:37.545Z,45.25
2022-11-30T20:46:22.682Z,42.28
2022-11-30T20:48:49.885Z,43.70
2022-11-30T20:51:32.804Z,41.00
2022-11-30T20:54:02.412Z,45.22
2022-11-30T20:56:29.422Z,43.55
2022-11-30T20:58:56.427Z,48.20
2022-11-30T21:01:23.770Z,41.35
2022-11-30T21:03:50.599Z,44.38
2022-11-30T21:06:17.642Z,43.47
2022-11-30T21:08:44.470Z,44.95
2022-11-30T21:11:17.312Z,43.80
2022-11-30T21:13:46.279Z,44.03
2022-11-30T21:16:15.657Z,49.28
2022-11-30T21:18:44.900Z,49.60
2022-11-30T21:21:17.955Z,43.58
2022-11-30T21:23:45.309Z,48.20
2022-11-30T21:26:23.560Z,44.53
2022-11-30T21:28:55.760Z,48.42
2022-11-30T21:31:23.445Z,47.30
2022-11-30T21:33:53.287Z,48.70
2022-11-30T21:38:52.522Z,50.55
2022-11-30T21:41:19.219Z,47.28
2022-11-30T21:43:46.040Z,44.05
2022-11-30T21:46:15.398Z,45.45
2022-11-30T21:48:43.829Z,45.23
2022-11-30T21:51:16.330Z,46.65
2022-11-30T21:53:45.421Z,45.33
2022-11-30T21:56:14.715Z,47.90
2022-11-30T21:58:44.179Z,44.53
2022-11-30T22:01:17.159Z,49.13
2022-11-30T22:03:44.481Z,46.67
2022-11-30T22:06:14.093Z,45.17
2022-11-30T22:08:41.342Z,47.05
2022-11-30T22:11:17.144Z,43.78
2022-11-30T22:13:44.638Z,46.53
2022-11-30T22:16:14.019Z,45.25
2022-11-30T22:18:42.385Z,46.53
2022-11-30T22:21:15.522Z,44.58
2022-11-30T22:23:49.066Z,48.63
2022-11-30T22:26:29.985Z,44.25
2022-11-30T22:28:59.139Z,44.35
2022-11-30T22:31:28.431Z,44.67
2022-11-30T22:33:55.904Z,47.80
2022-11-30T22:36:26.206Z,44.30
2022-11-30T22:38:58.714Z,45.10
2022-11-30T22:41:26.861Z,41.55
2022-11-30T22:43:55.033Z,49.40
2022-11-30T22:46:27.772Z,44.83
2022-11-30T22:48:55.263Z,47.88
2022-11-30T22:51:24.246Z,44.78
2022-11-30T22:53:51.954Z,46.08
2022-11-30T22:56:23.908Z,43.17
2022-11-30T22:58:56.091Z,43.88
2022-11-30T23:01:31.592Z,51.60
2022-11-30T23:04:12.082Z,43.85
2022-11-30T23:06:40.461Z,45.13
2022-11-30T23:09:10.918Z,44.33
2022-11-30T23:11:37.743Z,46.17
2022-11-30T23:14:06.188Z,44.42
2022-11-30T23:16:32.967Z,51.75
2022-11-30T23:19:00.515Z,47.85
2022-11-30T23:21:41.620Z,47.78
2022-11-30T23:24:12.172Z,47.70
2022-11-30T23:29:09.316Z,47.63
2022-11-30T23:34:05.949Z,49.63
2022-11-30T23:36:33.825Z,47.95
2022-11-30T23:39:06.246Z,50.00
2022-11-30T23:41:33.469Z,52.03
2022-11-30T23:44:00.613Z,50.97
2022-11-30T23:46:27.422Z,48.90
2022-11-30T23:48:55.639Z,49.60
2022-11-30T23:51:23.444Z,49.42
2022-11-30T23:53:50.175Z,50.38
2022-11-30T23:56:18.492Z,53.40
2022-11-30T23:58:45.605Z,53.40
